• Join FlightAware (Why Join?)
  • Login
  • US Flag 
08:09PM EDT


 

Airport Tracker/Info


-or-


 

Live Flight TrackerFlight Track Log ✈ N675MC ✈ 12-Sep-2013 ✈ KATL - KLIT

Flight Track Log - Related Links

Times and Time Zones

All times are in EDT time to prevent confusion due to time zone crossing. See the N675MC flight status page for this flight to view local times or setup timezone preferences in your user account.

Time Position Orientation Groundspeed Altitude Reporting Facility
EDT Latitude Longitude Course Direction KTS MPH feet Rate Location/Type
03:36PM 33.5992 -84.5475 266° West 440 506 4,100  Level Atlanta Center
03:37PM 33.5694 -84.6222 244° Southwest 358 412 6,400 2,400 Climbing Atlanta Center
03:38PM 33.7273 -84.9562 268° West  Level Estimated
03:38PM 33.5733 -84.7144 273° West 294 338 9,000  Level Atlanta Center
03:39PM 33.7226 -85.0911 268° West  Level FlightAware Approximate
03:39PM 33.5956 -84.8094 286° West 300 345 11,500  Level Atlanta Center
03:40PM 33.7177 -85.2259 268° West  Level FlightAware Approximate
03:40PM 33.6139 -84.9069 283° West 305 351 13,000  Level Atlanta Center
03:41PM 33.7407 -85.3579 268° West  Level Estimated
03:41PM 33.6358 -85.0319 282° West 325 374 14,500  Level Atlanta Center
03:42PM 33.7325 -85.4925 266° West  Level FlightAware Approximate
03:42PM 33.6578 -85.1519 282° West 358 412 16,700  Level Atlanta Center
03:43PM 33.6817 -85.2669 284° West 358 412 18,000 960 Climbing Atlanta Center
03:44PM 33.7053 -85.3947 283° West 378 435 18,700 720 Climbing Atlanta Center
03:45PM 33.6975 -85.5344 266° West 408 470 19,500 1,020 Climbing Atlanta Center
03:46PM 33.6728 -85.6814 259° West 438 504 20,800 1,200 Climbing Atlanta Center
03:47PM 33.6497 -85.8256 259° West 448 516 21,900 1,080 Climbing Atlanta Center
03:48PM 33.6392 -85.9725 265° West 448 516 23,000 960 Climbing Atlanta Center
03:49PM 33.6283 -86.1244 265° West 448 516 23,900 780 Climbing Atlanta Center
03:50PM 33.6175 -86.2789 265° West 460 529 24,600 1,080 Climbing Atlanta Center
03:51PM 33.6186 -86.4361 271° West 465 535 26,100 1,500 Climbing Atlanta Center
03:52PM 33.6322 -86.5836 276° West 460 529 27,700 900 Climbing Atlanta Center
03:53PM 33.6564 -86.7292 281° West 449 517 28,000 120 Climbing Atlanta Center
03:54PM 33.6781 -86.8722 280° West 444 511 28,000  Level Atlanta Center
03:55PM 33.6997 -87.0175 280° West 444 511 28,000  Level Atlanta Center
03:57PM 33.7422 -87.2822 281° West 453 521 28,000  Level Memphis Center
03:58PM 33.7747 -87.4208 286° West 446 513 28,000  Level Memphis Center
03:59PM 33.8158 -87.5769 288° West 441 507 28,000  Level Memphis Center
04:00PM 33.8439 -87.7161 284° West 435 501 28,000  Level Memphis Center
04:01PM 33.8761 -87.8528 286° West 435 501 28,000  Level Memphis Center
04:02PM 33.9019 -87.9972 282° West 435 501 28,000  Level Memphis Center
04:03PM 33.9294 -88.1392 283° West 435 501 28,000  Level Memphis Center
04:04PM 33.9547 -88.2736 283° West 441 507 28,000  Level Memphis Center
04:05PM 33.9842 -88.4158 284° West 446 513 28,000  Level Memphis Center
04:06PM 34.0136 -88.5606 284° West 446 513 28,000  Level Memphis Center
04:07PM 34.0428 -88.7053 284° West 446 513 28,000  Level Memphis Center
04:08PM 34.0694 -88.8450 283° West 446 513 28,000  Level Memphis Center
04:09PM 34.0983 -88.9900 284° West 439 505 28,000  Level Memphis Center
04:10PM 34.1292 -89.1328 285° West 439 505 28,000  Level Memphis Center
04:11PM 34.1575 -89.2753 284° West 439 505 28,000  Level Memphis Center
04:12PM 34.1817 -89.4231 281° West 445 512 28,000  Level Memphis Center
04:13PM 34.2058 -89.5811 281° West 450 518 28,000  Level Memphis Center
04:14PM 34.2275 -89.7317 280° West 450 518 28,000  Level Memphis Center
04:15PM 34.2531 -89.8772 282° West 450 518 28,000  Level Memphis Center
04:16PM 34.2808 -90.0228 283° West 450 518 28,000  Level Memphis Center
04:17PM 34.3103 -90.1686 284° West 450 518 28,000 -300 Level Memphis Center
04:18PM 34.3397 -90.3169 284° West 450 518 27,500 -660 Descending Memphis Center
04:19PM 34.3542 -90.4553 277° West 455 524 26,700 -840 Descending Memphis Center
04:20PM 34.3603 -90.6139 273° West 472 543 25,900 -960 Descending Memphis Center
04:21PM 34.3703 -90.7672 275° West 472 543 24,800 -960 Descending Memphis Center
04:22PM 34.3781 -90.9108 274° West 447 514 24,000 -1,020 Descending Memphis Center
04:23PM 34.3878 -91.0517 275° West 428 493 22,800 -2,340 Descending Memphis Center
04:24PM 34.3972 -91.2031 274° West 422 486 19,400 -3,540 Descending Memphis Center
04:25PM 34.4031 -91.2961 274° West 414 476 16,800 -3,300 Descending Memphis Center
04:25PM 34.4108 -91.3389 282° West 417 480 16,100 -3,420 Descending Memphis Center
04:26PM 34.4231 -91.4022 283° West 404 465 14,100 -3,420 Descending Memphis Center
04:26PM 34.4433 -91.4678 291° West 403 464 12,700 -2,700 Descending Memphis Center
04:27PM 34.4633 -91.5436 288° West 382 440 11,100 -1,800 Descending Memphis Center
04:27PM 34.4819 -91.5817 301° West 385 443 10,900 -840 Descending Memphis Center
04:28PM 34.5042 -91.6475 292° West 317 365 10,300 -720 Descending Memphis Center
04:28PM 34.5164 -91.6806 294° West 341 392 10,200 -1,140 Descending Memphis Center
04:29PM 34.5283 -91.7286 287° West 272 313 9,300 -1,620 Descending Memphis Center
04:29PM 34.5425 -91.7592 299° West 302 348 8,600 -1,920 Descending Memphis Center
04:30PM 34.5481 -91.8272 276° West 281 323 7,400 -1,620 Descending Memphis Center
04:30PM 34.5539 -91.8575 283° West 290 334 7,000 -1,560 Descending Memphis Center
04:31PM 34.5575 -91.9081 275° West 285 328 6,000 -1,500 Descending Memphis Center
04:31PM 34.5633 -91.9486 280° West 280 322 5,500 -1,320 Descending Memphis Center
04:32PM 34.5669 -91.9992 275° West 276 318 4,700 -1,620 Descending Memphis Center
04:32PM 34.5767 -92.0369 287° West 274 315 3,900 -1,680 Descending Memphis Center
04:33PM 34.5803 -92.0925 275° West 268 308 3,000 -1,440 Descending Memphis Center
04:33PM 34.5858 -92.1281 281° West 274 315 2,500 -1,020 Descending Memphis Center
04:34PM 34.5936 -92.1761 281° West 253 291 2,000 -540 Descending Memphis Center
04:34PM 34.6119 -92.2017 311° West 263 303 2,000  Level Memphis Center
04:35PM 34.6303 -92.2425 299° West 220 253 2,000  Level Memphis Center
04:35PM 34.6508 -92.2606 324° Northwest 241 277 2,000 -420 Level Memphis Center
04:36PM 34.6797 -92.2739 339° North 188 216 1,600 -900 Descending Memphis Center
04:36PM 34.7008 -92.2669 15° North 201 231 1,100 -1,200 Descending Memphis Center
04:37PM 34.7156 -92.2494 44° Northeast 129 148 400 -300 Descending Memphis Center
04:37PM 34.7442 -92.2931 309° West 169 194 800 840 Climbing Memphis Center